sensor_id;sensor_type;location;lat;lon;timestamp;temperature;humidity
51661;DHT22;37741;49.748;8.490;2023-02-07T00:00:31;3.10;80.40
51661;DHT22;37741;49.748;8.490;2023-02-07T00:02:56;3.10;80.30
51661;DHT22;37741;49.748;8.490;2023-02-07T00:05:22;3.10;80.30
51661;DHT22;37741;49.748;8.490;2023-02-07T00:07:48;3.10;80.40
51661;DHT22;37741;49.748;8.490;2023-02-07T00:10:14;3.10;80.20
51661;DHT22;37741;49.748;8.490;2023-02-07T00:12:39;3.10;80.30
51661;DHT22;37741;49.748;8.490;2023-02-07T00:15:05;3.10;80.30
51661;DHT22;37741;49.748;8.490;2023-02-07T00:17:31;3.10;80.20
51661;DHT22;37741;49.748;8.490;2023-02-07T00:19:57;3.00;80.20
51661;DHT22;37741;49.748;8.490;2023-02-07T00:22:23;3.00;80.10
51661;DHT22;37741;49.748;8.490;2023-02-07T00:24:49;3.00;80.10
51661;DHT22;37741;49.748;8.490;2023-02-07T00:27:14;3.00;80.20
51661;DHT22;37741;49.748;8.490;2023-02-07T00:29:40;3.00;80.20
51661;DHT22;37741;49.748;8.490;2023-02-07T00:32:06;3.00;80.20
51661;DHT22;37741;49.748;8.490;2023-02-07T00:34:31;3.00;80.10
51661;DHT22;37741;49.748;8.490;2023-02-07T00:37:02;3.00;80.20
51661;DHT22;37741;49.748;8.490;2023-02-07T00:39:29;2.90;80.10
51661;DHT22;37741;49.748;8.490;2023-02-07T00:41:55;3.00;80.30
51661;DHT22;37741;49.748;8.490;2023-02-07T00:44:20;3.00;80.40
51661;DHT22;37741;49.748;8.490;2023-02-07T00:46:46;2.90;80.30
51661;DHT22;37741;49.748;8.490;2023-02-07T00:49:12;2.90;80.40
51661;DHT22;37741;49.748;8.490;2023-02-07T00:51:38;2.90;80.40
51661;DHT22;37741;49.748;8.490;2023-02-07T00:54:04;2.90;80.50
51661;DHT22;37741;49.748;8.490;2023-02-07T00:56:30;2.90;80.50
51661;DHT22;37741;49.748;8.490;2023-02-07T00:58:56;2.90;80.60
51661;DHT22;37741;49.748;8.490;2023-02-07T01:01:22;2.90;80.60
51661;DHT22;37741;49.748;8.490;2023-02-07T01:03:49;2.90;80.60
51661;DHT22;37741;49.748;8.490;2023-02-07T01:06:15;2.90;80.70
51661;DHT22;37741;49.748;8.490;2023-02-07T01:08:41;2.90;80.60
51661;DHT22;37741;49.748;8.490;2023-02-07T01:11:09;2.90;80.70
51661;DHT22;37741;49.748;8.490;2023-02-07T01:13:36;2.80;80.60
51661;DHT22;37741;49.748;8.490;2023-02-07T01:16:02;2.80;80.40
51661;DHT22;37741;49.748;8.490;2023-02-07T01:18:28;2.80;80.50
51661;DHT22;37741;49.748;8.490;2023-02-07T01:20:54;2.80;80.70
51661;DHT22;37741;49.748;8.490;2023-02-07T01:23:20;2.80;80.60
51661;DHT22;37741;49.748;8.490;2023-02-07T01:25:46;2.80;80.70
51661;DHT22;37741;49.748;8.490;2023-02-07T01:28:12;2.80;80.70
51661;DHT22;37741;49.748;8.490;2023-02-07T01:30:42;2.80;80.70
51661;DHT22;37741;49.748;8.490;2023-02-07T01:33:08;2.80;80.70
51661;DHT22;37741;49.748;8.490;2023-02-07T01:35:34;2.80;80.70
51661;DHT22;37741;49.748;8.490;2023-02-07T01:38:01;2.80;80.70
51661;DHT22;37741;49.748;8.490;2023-02-07T01:40:30;2.80;80.80
51661;DHT22;37741;49.748;8.490;2023-02-07T01:42:55;2.80;80.70
51661;DHT22;37741;49.748;8.490;2023-02-07T01:47:52;2.70;80.70
51661;DHT22;37741;49.748;8.490;2023-02-07T01:50:18;2.80;80.70
51661;DHT22;37741;49.748;8.490;2023-02-07T01:52:44;2.80;80.70
51661;DHT22;37741;49.748;8.490;2023-02-07T01:55:22;2.70;80.70
51661;DHT22;37741;49.748;8.490;2023-02-07T01:57:50;2.70;80.70
51661;DHT22;37741;49.748;8.490;2023-02-07T02:00:17;2.70;80.80
51661;DHT22;37741;49.748;8.490;2023-02-07T02:02:43;2.70;80.90
51661;DHT22;37741;49.748;8.490;2023-02-07T02:05:10;2.70;80.90
51661;DHT22;37741;49.748;8.490;2023-02-07T02:07:37;2.70;80.90
51661;DHT22;37741;49.748;8.490;2023-02-07T02:10:24;2.70;80.90
51661;DHT22;37741;49.748;8.490;2023-02-07T02:13:15;2.70;81.00
51661;DHT22;37741;49.748;8.490;2023-02-07T02:25:03;2.60;81.00
51661;DHT22;37741;49.748;8.490;2023-02-07T02:30:47;2.60;81.00
51661;DHT22;37741;49.748;8.490;2023-02-07T02:33:33;2.60;80.90
51661;DHT22;37741;49.748;8.490;2023-02-07T02:36:51;2.60;80.90
51661;DHT22;37741;49.748;8.490;2023-02-07T02:39:07;2.60;80.90
51661;DHT22;37741;49.748;8.490;2023-02-07T02:44:14;2.60;81.00
51661;DHT22;37741;49.748;8.490;2023-02-07T02:46:41;2.50;81.00
51661;DHT22;37741;49.748;8.490;2023-02-07T02:49:12;2.50;80.90
51661;DHT22;37741;49.748;8.490;2023-02-07T02:51:39;2.50;81.00
51661;DHT22;37741;49.748;8.490;2023-02-07T02:54:29;2.50;80.90
51661;DHT22;37741;49.748;8.490;2023-02-07T02:57:11;2.50;80.90
51661;DHT22;37741;49.748;8.490;2023-02-07T03:05:07;2.50;80.70
51661;DHT22;37741;49.748;8.490;2023-02-07T03:07:49;2.50;81.40
51661;DHT22;37741;49.748;8.490;2023-02-07T03:13:08;2.40;80.60
51661;DHT22;37741;49.748;8.490;2023-02-07T03:16:36;2.40;80.60
51661;DHT22;37741;49.748;8.490;2023-02-07T03:19:16;2.40;80.60
51661;DHT22;37741;49.748;8.490;2023-02-07T03:21:38;2.40;80.60
51661;DHT22;37741;49.748;8.490;2023-02-07T03:24:11;2.40;80.70
51661;DHT22;37741;49.748;8.490;2023-02-07T03:26:42;2.40;80.70
51661;DHT22;37741;49.748;8.490;2023-02-07T03:29:09;2.30;80.70
51661;DHT22;37741;49.748;8.490;2023-02-07T03:31:38;2.30;80.60
51661;DHT22;37741;49.748;8.490;2023-02-07T03:34:10;2.30;80.70
51661;DHT22;37741;49.748;8.490;2023-02-07T03:36:56;2.30;80.80
51661;DHT22;37741;49.748;8.490;2023-02-07T03:39:23;2.30;80.70
51661;DHT22;37741;49.748;8.490;2023-02-07T03:41:55;2.30;80.70
51661;DHT22;37741;49.748;8.490;2023-02-07T03:44:23;2.20;80.60
51661;DHT22;37741;49.748;8.490;2023-02-07T03:46:51;2.30;80.70
51661;DHT22;37741;49.748;8.490;2023-02-07T03:49:17;2.20;80.70
51661;DHT22;37741;49.748;8.490;2023-02-07T03:51:43;2.20;80.60
51661;DHT22;37741;49.748;8.490;2023-02-07T03:54:09;2.20;80.70
51661;DHT22;37741;49.748;8.490;2023-02-07T03:56:35;2.20;80.70
51661;DHT22;37741;49.748;8.490;2023-02-07T03:59:01;2.20;80.80
51661;DHT22;37741;49.748;8.490;2023-02-07T04:01:27;2.20;80.80
51661;DHT22;37741;49.748;8.490;2023-02-07T04:03:53;2.10;80.80
51661;DHT22;37741;49.748;8.490;2023-02-07T04:06:37;2.10;80.70
51661;DHT22;37741;49.748;8.490;2023-02-07T04:09:03;2.10;80.70
51661;DHT22;37741;49.748;8.490;2023-02-07T04:11:28;2.10;80.80
51661;DHT22;37741;49.748;8.490;2023-02-07T04:13:54;2.10;80.70
51661;DHT22;37741;49.748;8.490;2023-02-07T04:16:20;2.10;80.70
51661;DHT22;37741;49.748;8.490;2023-02-07T04:18:45;2.10;80.70
51661;DHT22;37741;49.748;8.490;2023-02-07T04:21:11;2.10;80.60
51661;DHT22;37741;49.748;8.490;2023-02-07T04:23:37;2.10;80.70
51661;DHT22;37741;49.748;8.490;2023-02-07T04:26:03;2.00;80.60
51661;DHT22;37741;49.748;8.490;2023-02-07T04:28:29;2.00;80.70
51661;DHT22;37741;49.748;8.490;2023-02-07T04:30:54;2.00;80.70
51661;DHT22;37741;49.748;8.490;2023-02-07T04:33:21;2.00;80.80
51661;DHT22;37741;49.748;8.490;2023-02-07T04:35:58;2.00;80.80
51661;DHT22;37741;49.748;8.490;2023-02-07T04:38:24;2.00;80.80
51661;DHT22;37741;49.748;8.490;2023-02-07T04:40:50;1.90;80.70
51661;DHT22;37741;49.748;8.490;2023-02-07T04:43:15;1.90;80.70
51661;DHT22;37741;49.748;8.490;2023-02-07T04:45:41;1.90;80.70
51661;DHT22;37741;49.748;8.490;2023-02-07T04:48:06;1.90;80.70
51661;DHT22;37741;49.748;8.490;2023-02-07T04:50:32;1.90;80.70
51661;DHT22;37741;49.748;8.490;2023-02-07T04:52:57;1.90;80.70
51661;DHT22;37741;49.748;8.490;2023-02-07T04:55:23;1.90;80.60
51661;DHT22;37741;49.748;8.490;2023-02-07T04:57:49;1.90;80.60
51661;DHT22;37741;49.748;8.490;2023-02-07T05:00:15;1.80;80.50
51661;DHT22;37741;49.748;8.490;2023-02-07T05:02:42;1.80;80.50
51661;DHT22;37741;49.748;8.490;2023-02-07T05:05:08;1.80;81.10
51661;DHT22;37741;49.748;8.490;2023-02-07T05:07:34;1.80;80.50
51661;DHT22;37741;49.748;8.490;2023-02-07T05:10:00;1.80;80.40
51661;DHT22;37741;49.748;8.490;2023-02-07T05:12:25;1.70;80.40
51661;DHT22;37741;49.748;8.490;2023-02-07T05:14:51;1.70;80.30
51661;DHT22;37741;49.748;8.490;2023-02-07T05:17:16;1.70;80.30
51661;DHT22;37741;49.748;8.490;2023-02-07T05:19:42;1.70;80.40
51661;DHT22;37741;49.748;8.490;2023-02-07T05:22:08;1.70;80.40
51661;DHT22;37741;49.748;8.490;2023-02-07T05:24:34;1.70;80.30
51661;DHT22;37741;49.748;8.490;2023-02-07T05:26:59;1.70;80.30
51661;DHT22;37741;49.748;8.490;2023-02-07T05:29:25;1.60;80.20
51661;DHT22;37741;49.748;8.490;2023-02-07T05:31:50;1.60;79.90
51661;DHT22;37741;49.748;8.490;2023-02-07T05:34:34;1.60;79.50
51661;DHT22;37741;49.748;8.490;2023-02-07T05:37:00;1.60;79.50
51661;DHT22;37741;49.748;8.490;2023-02-07T05:39:26;1.60;79.60
51661;DHT22;37741;49.748;8.490;2023-02-07T05:41:51;1.50;79.50
51661;DHT22;37741;49.748;8.490;2023-02-07T05:44:17;1.50;79.60
51661;DHT22;37741;49.748;8.490;2023-02-07T05:46:42;1.50;79.40
51661;DHT22;37741;49.748;8.490;2023-02-07T05:49:08;1.50;79.60
51661;DHT22;37741;49.748;8.490;2023-02-07T05:51:33;1.50;79.60
51661;DHT22;37741;49.748;8.490;2023-02-07T05:53:59;1.50;79.60
51661;DHT22;37741;49.748;8.490;2023-02-07T05:56:25;1.50;79.70
51661;DHT22;37741;49.748;8.490;2023-02-07T05:58:50;1.40;79.70
51661;DHT22;37741;49.748;8.490;2023-02-07T06:01:16;1.50;79.80
51661;DHT22;37741;49.748;8.490;2023-02-07T06:03:43;1.50;79.90
51661;DHT22;37741;49.748;8.490;2023-02-07T06:06:08;1.40;79.80
51661;DHT22;37741;49.748;8.490;2023-02-07T06:08:34;1.40;79.80
51661;DHT22;37741;49.748;8.490;2023-02-07T06:11:01;1.40;79.90
51661;DHT22;37741;49.748;8.490;2023-02-07T06:13:26;1.40;79.90
51661;DHT22;37741;49.748;8.490;2023-02-07T06:15:52;1.40;79.80
51661;DHT22;37741;49.748;8.490;2023-02-07T06:18:18;1.40;79.90
51661;DHT22;37741;49.748;8.490;2023-02-07T06:20:43;1.40;79.90
51661;DHT22;37741;49.748;8.490;2023-02-07T06:23:09;1.30;79.80
51661;DHT22;37741;49.748;8.490;2023-02-07T06:25:35;1.30;79.90
51661;DHT22;37741;49.748;8.490;2023-02-07T06:28:00;1.30;79.90
51661;DHT22;37741;49.748;8.490;2023-02-07T06:30:26;1.30;79.80
51661;DHT22;37741;49.748;8.490;2023-02-07T06:32:52;1.30;79.80
51661;DHT22;37741;49.748;8.490;2023-02-07T06:35:17;1.30;79.80
51661;DHT22;37741;49.748;8.490;2023-02-07T06:37:43;1.20;79.80
51661;DHT22;37741;49.748;8.490;2023-02-07T06:40:09;1.30;79.80
51661;DHT22;37741;49.748;8.490;2023-02-07T06:42:35;1.20;79.80
51661;DHT22;37741;49.748;8.490;2023-02-07T06:45:00;1.20;79.80
51661;DHT22;37741;49.748;8.490;2023-02-07T06:47:26;1.20;79.80
51661;DHT22;37741;49.748;8.490;2023-02-07T06:49:52;1.20;79.80
51661;DHT22;37741;49.748;8.490;2023-02-07T06:52:17;1.20;79.80
51661;DHT22;37741;49.748;8.490;2023-02-07T06:54:43;1.20;79.80
51661;DHT22;37741;49.748;8.490;2023-02-07T06:57:09;1.20;79.80
51661;DHT22;37741;49.748;8.490;2023-02-07T06:59:34;1.10;79.80
51661;DHT22;37741;49.748;8.490;2023-02-07T07:02:03;1.20;79.90
51661;DHT22;37741;49.748;8.490;2023-02-07T07:04:32;1.10;79.80
51661;DHT22;37741;49.748;8.490;2023-02-07T07:06:58;1.10;79.70
51661;DHT22;37741;49.748;8.490;2023-02-07T07:09:23;1.10;79.90
51661;DHT22;37741;49.748;8.490;2023-02-07T07:11:49;1.10;79.80
51661;DHT22;37741;49.748;8.490;2023-02-07T07:14:15;1.10;79.70
51661;DHT22;37741;49.748;8.490;2023-02-07T07:16:40;1.00;79.70
51661;DHT22;37741;49.748;8.490;2023-02-07T07:19:06;1.00;79.60
51661;DHT22;37741;49.748;8.490;2023-02-07T07:21:32;1.00;79.70
51661;DHT22;37741;49.748;8.490;2023-02-07T07:23:57;1.00;79.70
51661;DHT22;37741;49.748;8.490;2023-02-07T07:26:23;1.00;79.70
51661;DHT22;37741;49.748;8.490;2023-02-07T07:28:49;1.00;79.70
51661;DHT22;37741;49.748;8.490;2023-02-07T07:31:15;1.00;79.70
51661;DHT22;37741;49.748;8.490;2023-02-07T07:33:41;1.00;79.80
51661;DHT22;37741;49.748;8.490;2023-02-07T07:36:07;1.00;79.70
51661;DHT22;37741;49.748;8.490;2023-02-07T07:38:33;1.00;79.80
51661;DHT22;37741;49.748;8.490;2023-02-07T07:40:59;1.00;79.70
51661;DHT22;37741;49.748;8.490;2023-02-07T07:43:25;0.90;79.80
51661;DHT22;37741;49.748;8.490;2023-02-07T07:45:53;0.90;79.80
51661;DHT22;37741;49.748;8.490;2023-02-07T07:48:20;0.90;79.80
51661;DHT22;37741;49.748;8.490;2023-02-07T07:50:46;0.90;79.80
51661;DHT22;37741;49.748;8.490;2023-02-07T07:53:11;0.90;79.80
51661;DHT22;37741;49.748;8.490;2023-02-07T07:55:37;0.90;79.90
51661;DHT22;37741;49.748;8.490;2023-02-07T07:58:03;0.90;79.80
51661;DHT22;37741;49.748;8.490;2023-02-07T08:00:29;0.90;79.70
51661;DHT22;37741;49.748;8.490;2023-02-07T08:02:55;0.90;79.80
51661;DHT22;37741;49.748;8.490;2023-02-07T08:05:21;0.80;79.70
51661;DHT22;37741;49.748;8.490;2023-02-07T08:07:47;0.90;79.70
51661;DHT22;37741;49.748;8.490;2023-02-07T08:10:12;0.80;80.40
51661;DHT22;37741;49.748;8.490;2023-02-07T08:12:38;0.80;79.80
51661;DHT22;37741;49.748;8.490;2023-02-07T08:15:04;0.80;79.70
51661;DHT22;37741;49.748;8.490;2023-02-07T08:17:32;0.80;79.70
51661;DHT22;37741;49.748;8.490;2023-02-07T08:19:57;0.80;79.80
51661;DHT22;37741;49.748;8.490;2023-02-07T08:22:23;0.80;79.80
51661;DHT22;37741;49.748;8.490;2023-02-07T08:24:49;0.80;79.70
51661;DHT22;37741;49.748;8.490;2023-02-07T08:27:14;0.80;79.50
51661;DHT22;37741;49.748;8.490;2023-02-07T08:29:40;0.80;79.50
51661;DHT22;37741;49.748;8.490;2023-02-07T08:32:06;0.80;79.50
51661;DHT22;37741;49.748;8.490;2023-02-07T08:34:31;0.80;79.60
51661;DHT22;37741;49.748;8.490;2023-02-07T08:37:04;0.80;79.60
51661;DHT22;37741;49.748;8.490;2023-02-07T08:39:30;0.80;79.50
51661;DHT22;37741;49.748;8.490;2023-02-07T08:41:56;0.80;79.50
51661;DHT22;37741;49.748;8.490;2023-02-07T08:44:22;0.80;79.50
51661;DHT22;37741;49.748;8.490;2023-02-07T08:46:48;0.80;79.30
51661;DHT22;37741;49.748;8.490;2023-02-07T08:49:13;0.80;79.20
51661;DHT22;37741;49.748;8.490;2023-02-07T08:51:39;0.80;79.30
51661;DHT22;37741;49.748;8.490;2023-02-07T08:54:07;0.80;79.30
51661;DHT22;37741;49.748;8.490;2023-02-07T08:56:33;0.80;79.30
51661;DHT22;37741;49.748;8.490;2023-02-07T08:58:59;0.80;79.40
51661;DHT22;37741;49.748;8.490;2023-02-07T09:01:25;0.80;79.20
51661;DHT22;37741;49.748;8.490;2023-02-07T09:03:54;0.80;79.20
51661;DHT22;37741;49.748;8.490;2023-02-07T09:06:23;0.80;79.20
51661;DHT22;37741;49.748;8.490;2023-02-07T09:08:49;0.80;79.10
51661;DHT22;37741;49.748;8.490;2023-02-07T09:11:15;0.80;79.10
51661;DHT22;37741;49.748;8.490;2023-02-07T09:13:41;0.80;79.10
51661;DHT22;37741;49.748;8.490;2023-02-07T09:16:10;0.80;78.90
51661;DHT22;37741;49.748;8.490;2023-02-07T09:18:36;0.80;79.00
51661;DHT22;37741;49.748;8.490;2023-02-07T09:21:03;0.80;78.90
51661;DHT22;37741;49.748;8.490;2023-02-07T09:23:29;0.80;78.90
51661;DHT22;37741;49.748;8.490;2023-02-07T09:26:00;0.80;78.80
51661;DHT22;37741;49.748;8.490;2023-02-07T09:28:27;0.80;78.70
51661;DHT22;37741;49.748;8.490;2023-02-07T09:30:53;0.80;78.70
51661;DHT22;37741;49.748;8.490;2023-02-07T09:33:19;0.80;78.70
51661;DHT22;37741;49.748;8.490;2023-02-07T09:35:47;0.80;78.60
51661;DHT22;37741;49.748;8.490;2023-02-07T09:38:16;0.80;78.70
51661;DHT22;37741;49.748;8.490;2023-02-07T09:40:43;0.80;78.70
51661;DHT22;37741;49.748;8.490;2023-02-07T09:43:14;0.80;78.50
51661;DHT22;37741;49.748;8.490;2023-02-07T09:45:52;0.80;78.40
51661;DHT22;37741;49.748;8.490;2023-02-07T09:48:31;0.80;78.40
51661;DHT22;37741;49.748;8.490;2023-02-07T09:51:03;0.80;78.30
51661;DHT22;37741;49.748;8.490;2023-02-07T09:53:42;0.80;78.30
51661;DHT22;37741;49.748;8.490;2023-02-07T09:56:09;0.80;78.30
51661;DHT22;37741;49.748;8.490;2023-02-07T09:58:51;0.80;78.30
51661;DHT22;37741;49.748;8.490;2023-02-07T10:01:20;0.80;78.20
51661;DHT22;37741;49.748;8.490;2023-02-07T10:06:45;0.80;78.20
51661;DHT22;37741;49.748;8.490;2023-02-07T10:09:14;0.80;78.20
51661;DHT22;37741;49.748;8.490;2023-02-07T10:11:48;0.80;78.10
51661;DHT22;37741;49.748;8.490;2023-02-07T10:14:38;0.80;78.10
51661;DHT22;37741;49.748;8.490;2023-02-07T10:30:34;0.90;78.10
51661;DHT22;37741;49.748;8.490;2023-02-07T10:33:14;0.90;78.10
51661;DHT22;37741;49.748;8.490;2023-02-07T10:35:41;0.90;78.10
51661;DHT22;37741;49.748;8.490;2023-02-07T10:41:19;0.90;77.80
51661;DHT22;37741;49.748;8.490;2023-02-07T10:43:47;1.00;77.80
51661;DHT22;37741;49.748;8.490;2023-02-07T10:46:15;0.90;77.70
51661;DHT22;37741;49.748;8.490;2023-02-07T10:48:44;1.00;77.70
51661;DHT22;37741;49.748;8.490;2023-02-07T10:51:33;0.90;77.70
51661;DHT22;37741;49.748;8.490;2023-02-07T10:56:41;1.00;77.80
51661;DHT22;37741;49.748;8.490;2023-02-07T10:59:39;0.90;77.70
51661;DHT22;37741;49.748;8.490;2023-02-07T11:05:01;1.00;77.50
51661;DHT22;37741;49.748;8.490;2023-02-07T11:07:28;1.00;77.60
51661;DHT22;37741;49.748;8.490;2023-02-07T11:10:18;1.00;77.40
51661;DHT22;37741;49.748;8.490;2023-02-07T11:12:49;1.00;77.40
51661;DHT22;37741;49.748;8.490;2023-02-07T11:15:20;1.00;77.20
51661;DHT22;37741;49.748;8.490;2023-02-07T11:17:55;1.00;77.20
51661;DHT22;37741;49.748;8.490;2023-02-07T11:22:53;1.10;77.30
51661;DHT22;37741;49.748;8.490;2023-02-07T11:25:37;1.00;77.10
51661;DHT22;37741;49.748;8.490;2023-02-07T11:28:05;1.10;77.30
51661;DHT22;37741;49.748;8.490;2023-02-07T11:30:34;1.10;77.20
51661;DHT22;37741;49.748;8.490;2023-02-07T11:33:03;1.10;77.20
51661;DHT22;37741;49.748;8.490;2023-02-07T11:35:29;1.10;77.20
51661;DHT22;37741;49.748;8.490;2023-02-07T11:38:04;1.10;77.20
51661;DHT22;37741;49.748;8.490;2023-02-07T11:40:37;1.20;77.20
51661;DHT22;37741;49.748;8.490;2023-02-07T11:45:35;1.20;77.20
51661;DHT22;37741;49.748;8.490;2023-02-07T11:48:03;1.20;77.00
51661;DHT22;37741;49.748;8.490;2023-02-07T11:50:39;1.20;77.10
51661;DHT22;37741;49.748;8.490;2023-02-07T11:53:24;1.20;77.00
51661;DHT22;37741;49.748;8.490;2023-02-07T11:55:55;1.20;77.00
51661;DHT22;37741;49.748;8.490;2023-02-07T12:00:46;1.20;77.00
51661;DHT22;37741;49.748;8.490;2023-02-07T12:03:24;1.20;76.80
51661;DHT22;37741;49.748;8.490;2023-02-07T12:05:57;1.30;76.80
51661;DHT22;37741;49.748;8.490;2023-02-07T12:08:27;1.30;76.90
51661;DHT22;37741;49.748;8.490;2023-02-07T12:11:03;1.30;76.80
51661;DHT22;37741;49.748;8.490;2023-02-07T12:13:41;1.30;76.80
51661;DHT22;37741;49.748;8.490;2023-02-07T12:16:22;1.30;76.60
51661;DHT22;37741;49.748;8.490;2023-02-07T12:19:06;1.30;76.50
51661;DHT22;37741;49.748;8.490;2023-02-07T12:21:58;1.30;76.40
51661;DHT22;37741;49.748;8.490;2023-02-07T12:24:29;1.40;76.30
51661;DHT22;37741;49.748;8.490;2023-02-07T12:38:16;1.40;75.90
51661;DHT22;37741;49.748;8.490;2023-02-07T12:43:23;1.50;75.70
51661;DHT22;37741;49.748;8.490;2023-02-07T13:05:05;2.10;65.90
51661;DHT22;37741;49.748;8.490;2023-02-07T13:10:53;2.20;68.10
51661;DHT22;37741;49.748;8.490;2023-02-07T13:13:32;2.20;68.90
51661;DHT22;37741;49.748;8.490;2023-02-07T13:21:43;2.20;70.10
51661;DHT22;37741;49.748;8.490;2023-02-07T13:24:14;2.20;70.40
51661;DHT22;37741;49.748;8.490;2023-02-07T13:26:48;2.20;70.70
51661;DHT22;37741;49.748;8.490;2023-02-07T13:29:16;2.20;70.70
51661;DHT22;37741;49.748;8.490;2023-02-07T13:31:46;2.20;70.90
51661;DHT22;37741;49.748;8.490;2023-02-07T13:37:23;2.20;71.30
51661;DHT22;37741;49.748;8.490;2023-02-07T13:40:03;2.20;71.30
51661;DHT22;37741;49.748;8.490;2023-02-07T13:42:50;2.20;71.40
51661;DHT22;37741;49.748;8.490;2023-02-07T13:48:37;2.20;71.40
51661;DHT22;37741;49.748;8.490;2023-02-07T13:51:20;2.30;71.50
51661;DHT22;37741;49.748;8.490;2023-02-07T13:54:06;2.20;71.40
51661;DHT22;37741;49.748;8.490;2023-02-07T13:56:35;2.30;71.50
51661;DHT22;37741;49.748;8.490;2023-02-07T13:59:35;2.30;71.50
51661;DHT22;37741;49.748;8.490;2023-02-07T14:02:11;2.30;71.50
51661;DHT22;37741;49.748;8.490;2023-02-07T14:04:56;2.30;71.50
51661;DHT22;37741;49.748;8.490;2023-02-07T14:07:27;2.30;71.20
51661;DHT22;37741;49.748;8.490;2023-02-07T14:09:58;2.30;71.20
51661;DHT22;37741;49.748;8.490;2023-02-07T14:12:26;2.30;71.30
51661;DHT22;37741;49.748;8.490;2023-02-07T14:14:54;2.30;71.00
51661;DHT22;37741;49.748;8.490;2023-02-07T14:19:56;2.40;71.50
51661;DHT22;37741;49.748;8.490;2023-02-07T14:23:11;2.40;71.20
51661;DHT22;37741;49.748;8.490;2023-02-07T14:25:21;2.40;71.40
51661;DHT22;37741;49.748;8.490;2023-02-07T14:33:21;2.40;71.20
51661;DHT22;37741;49.748;8.490;2023-02-07T14:41:30;2.50;71.30
51661;DHT22;37741;49.748;8.490;2023-02-07T14:43:58;2.50;71.10
51661;DHT22;37741;49.748;8.490;2023-02-07T14:46:30;2.60;71.40
51661;DHT22;37741;49.748;8.490;2023-02-07T14:52:10;2.60;71.10
51661;DHT22;37741;49.748;8.490;2023-02-07T14:54:45;2.60;70.60
51661;DHT22;37741;49.748;8.490;2023-02-07T14:57:35;2.60;70.60
51661;DHT22;37741;49.748;8.490;2023-02-07T15:05:21;2.70;70.00
51661;DHT22;37741;49.748;8.490;2023-02-07T15:08:03;2.70;69.80
51661;DHT22;37741;49.748;8.490;2023-02-07T15:10:36;2.70;69.20
51661;DHT22;37741;49.748;8.490;2023-02-07T15:13:05;2.80;69.50
51661;DHT22;37741;49.748;8.490;2023-02-07T15:15:48;2.80;68.80
51661;DHT22;37741;49.748;8.490;2023-02-07T15:18:17;2.80;68.50
51661;DHT22;37741;49.748;8.490;2023-02-07T15:20:48;2.80;68.50
51661;DHT22;37741;49.748;8.490;2023-02-07T15:23:14;2.90;68.60
51661;DHT22;37741;49.748;8.490;2023-02-07T15:28:59;2.90;68.60
51661;DHT22;37741;49.748;8.490;2023-02-07T15:31:25;2.90;68.60
51661;DHT22;37741;49.748;8.490;2023-02-07T15:33:54;2.90;68.20
51661;DHT22;37741;49.748;8.490;2023-02-07T15:36:32;2.90;68.90
51661;DHT22;37741;49.748;8.490;2023-02-07T15:39:00;2.90;67.80
51661;DHT22;37741;49.748;8.490;2023-02-07T15:41:26;2.90;67.60
51661;DHT22;37741;49.748;8.490;2023-02-07T15:43:58;2.90;67.70
51661;DHT22;37741;49.748;8.490;2023-02-07T15:46:25;3.00;67.50
51661;DHT22;37741;49.748;8.490;2023-02-07T15:48:54;3.00;67.50
51661;DHT22;37741;49.748;8.490;2023-02-07T15:51:24;3.00;67.40
51661;DHT22;37741;49.748;8.490;2023-02-07T15:53:55;3.00;67.30
51661;DHT22;37741;49.748;8.490;2023-02-07T15:56:21;3.00;67.70
51661;DHT22;37741;49.748;8.490;2023-02-07T15:58:47;3.00;67.70
51661;DHT22;37741;49.748;8.490;2023-02-07T16:01:23;3.00;67.30
51661;DHT22;37741;49.748;8.490;2023-02-07T16:03:49;3.00;67.40
51661;DHT22;37741;49.748;8.490;2023-02-07T16:06:24;3.00;67.70
51661;DHT22;37741;49.748;8.490;2023-02-07T16:08:53;3.10;67.80
51661;DHT22;37741;49.748;8.490;2023-02-07T16:16:53;3.10;68.30
51661;DHT22;37741;49.748;8.490;2023-02-07T16:22:13;3.10;68.10
51661;DHT22;37741;49.748;8.490;2023-02-07T16:24:42;3.10;67.90
51661;DHT22;37741;49.748;8.490;2023-02-07T16:27:20;3.00;68.00
51661;DHT22;37741;49.748;8.490;2023-02-07T16:29:49;3.00;68.20
51661;DHT22;37741;49.748;8.490;2023-02-07T16:32:14;3.00;68.00
51661;DHT22;37741;49.748;8.490;2023-02-07T16:34:42;3.00;68.10
51661;DHT22;37741;49.748;8.490;2023-02-07T16:37:08;3.00;68.10
51661;DHT22;37741;49.748;8.490;2023-02-07T16:39:33;3.00;68.10
51661;DHT22;37741;49.748;8.490;2023-02-07T16:42:05;3.00;68.20
51661;DHT22;37741;49.748;8.490;2023-02-07T16:44:33;3.00;68.00
51661;DHT22;37741;49.748;8.490;2023-02-07T16:46:59;3.00;68.20
51661;DHT22;37741;49.748;8.490;2023-02-07T16:49:26;3.00;68.10
51661;DHT22;37741;49.748;8.490;2023-02-07T16:51:54;3.00;67.90
51661;DHT22;37741;49.748;8.490;2023-02-07T16:54:20;3.00;68.30
51661;DHT22;37741;49.748;8.490;2023-02-07T16:56:49;2.90;68.30
51661;DHT22;37741;49.748;8.490;2023-02-07T16:59:16;2.90;68.50
51661;DHT22;37741;49.748;8.490;2023-02-07T17:01:43;2.90;68.40
51661;DHT22;37741;49.748;8.490;2023-02-07T17:04:12;2.90;68.60
51661;DHT22;37741;49.748;8.490;2023-02-07T17:06:39;2.90;68.40
51661;DHT22;37741;49.748;8.490;2023-02-07T17:11:38;2.90;68.40
51661;DHT22;37741;49.748;8.490;2023-02-07T17:14:04;2.90;68.50
51661;DHT22;37741;49.748;8.490;2023-02-07T17:16:30;2.90;68.20
51661;DHT22;37741;49.748;8.490;2023-02-07T17:18:57;2.90;68.30
51661;DHT22;37741;49.748;8.490;2023-02-07T17:21:23;2.80;68.20
51661;DHT22;37741;49.748;8.490;2023-02-07T17:23:49;2.80;68.60
51661;DHT22;37741;49.748;8.490;2023-02-07T17:26:26;2.80;68.50
51661;DHT22;37741;49.748;8.490;2023-02-07T17:28:53;2.80;68.50
51661;DHT22;37741;49.748;8.490;2023-02-07T17:31:20;2.80;68.80
51661;DHT22;37741;49.748;8.490;2023-02-07T17:33:45;2.80;68.90
51661;DHT22;37741;49.748;8.490;2023-02-07T17:36:13;2.80;68.30
51661;DHT22;37741;49.748;8.490;2023-02-07T17:38:40;2.80;68.90
51661;DHT22;37741;49.748;8.490;2023-02-07T17:41:05;2.70;68.70
51661;DHT22;37741;49.748;8.490;2023-02-07T17:43:34;2.70;68.80
51661;DHT22;37741;49.748;8.490;2023-02-07T17:45:59;2.70;68.70
51661;DHT22;37741;49.748;8.490;2023-02-07T17:48:25;2.70;68.80
51661;DHT22;37741;49.748;8.490;2023-02-07T17:50:54;2.70;68.40
51661;DHT22;37741;49.748;8.490;2023-02-07T17:53:20;2.70;68.60
51661;DHT22;37741;49.748;8.490;2023-02-07T17:55:48;2.70;68.50
51661;DHT22;37741;49.748;8.490;2023-02-07T17:58:15;2.60;68.50
51661;DHT22;37741;49.748;8.490;2023-02-07T18:00:42;2.60;68.20
51661;DHT22;37741;49.748;8.490;2023-02-07T18:03:08;2.60;68.10
51661;DHT22;37741;49.748;8.490;2023-02-07T18:05:34;2.60;68.60
51661;DHT22;37741;49.748;8.490;2023-02-07T18:08:00;2.60;68.50
51661;DHT22;37741;49.748;8.490;2023-02-07T18:10:29;2.60;68.80
51661;DHT22;37741;49.748;8.490;2023-02-07T18:12:56;2.60;68.60
51661;DHT22;37741;49.748;8.490;2023-02-07T18:15:22;2.60;68.80
51661;DHT22;37741;49.748;8.490;2023-02-07T18:17:49;2.50;68.10
51661;DHT22;37741;49.748;8.490;2023-02-07T18:20:23;2.50;68.30